الصفحة الرئيسية
METAR-TAF:

METAR-TAF

مطار :

الخرطوم, السودان

مطار الخرطوم الدولي

دائرة عرض: 15-36N, خط طول: 032-33E, ارتفاع: 382 متر

مراقبة الطقس الحالي

تاريخ ووقت الإصدار 24 دقيقة قبل الساعة 18:00UTC
درجة الحرارة 27°درجة مئوية
الرطوبة 9%
ضغط 1012 hPa
الرؤية 10 كم أو أكثر
الغيوم لا تقل 1500 م ولا وجود لمزنة ركامية السحاب الأسود

METAR: HSSS 181800Z CAVOK 27/M08 Q1012 NOSIG

زمن: 21:24 (18:24 UTC)

توقعات

تاريخ ووقت الإصدار 1ساعة و 24 دقيقة قبل الساعة 17:00UTC
التوقعات صالحة من18 الساعة 18 UTC إلى 19 الساعة 24 UTC
ريح 12 عقدة من الشمال تتزايد حتى 22 عقدة
الرؤية: 8000 متر
سماء صافية
مؤقت
من 18 الساعة 18 UTC إلى 18 الساعة 22 UTC
الرؤية: 4000 متر
هبوب الرمال
نظرية الاحتمالات 30% :
مؤقت
من 19 الساعة 01 UTC إلى 19 الساعة 05 UTC
الرؤية: 2000 متر
هبوب الرمال

TAF: HSSS 181700Z 1818/1924 36012G22KT 8000 SKC TEMPO 1818/1822 4000 BLSA PROB30 TEMPO 1901/1905 2000 BLSA

أرصاد الطقس والتوقعات من أكثر من 4000 مطار (تقارير الطقس للمطار METAR والتنبؤ بالطقس بالمطارTAF).

المحطات المتاحة هي النقط الصفراء والحمراء على الخريطة.

حرك المؤشر فوق النقطة لمعرفة اسم المحطة.

ثم انقر لمعرفة أرصاد وتوقعات الطقس.

لتغيير الخارطة: اضغط على الأزرار الخضراء مع رمز الصليب الأسود للتكبير. على الزر الأخضر مع شرطة للتصغير، أو على الأسهم الخضراء للخرائط المجاورة.


METAR-TAF: